<<    November 2010    >>
Datum    Temp.       Tempmin      Tempmax    Taup.       Taup.min      Taup.max    Feuchte    Feuchtemin    Feuchtemax    Druck    Druckmin    Druckmax    Regen    Wind    Benmax  
  01.11.2010  9,0    8,0    07:44    10,3    09:38  8,3    7,3    22:48    10,0    09:38  95,7    89    23:59    98    00:00  1014,6    1006    00:00    1019    17:57  0,9  0,0  0,0  
  02.11.2010  11,2    8,6    03:45    15,8    14:02  8,2    6,2    13:45    9,8    10:00  82,4    53    13:45    95    06:36  1018,8    1017    13:00    1020    04:45  0,0  0,0  0,0  
  03.11.2010  13,5    9,8    01:56    15,6    23:45  9,4    7,4    01:08    11,4    13:54  76,3    68    07:57    88    02:41  1018,6    1016    01:59    1022    19:29  0,0  0,0  0,0  
  04.11.2010  16,4    15,1    03:38    18,1    14:36  11,1    8,4    23:49    13,3    05:37  71,2    59    17:06    88    03:50  1023,8    1020    00:00    1026    16:59  0,0  1,9  33,5  
  05.11.2010  14,7    13,4    18:21    15,7    00:47  9,8    7,4    03:08    13,6    20:10  73,5    59    01:18    97    19:57  1025,2    1021    23:19    1027    11:04  1,8  8,3  15,5  
  06.11.2010  11,3    8,1    23:46    14,8    03:59  9,4    7,7    16:55    11,7    00:00  88,8    70    06:01    98    23:59  1018,1    1014    23:19    1022    00:00  8,1  8,3  15,5  
  07.11.2010  7,8    6,7    23:59    8,7    10:42  6,7    4,4    23:29    8,4    10:42  93,1    83    16:40    98    00:00  1008,7    1003    23:16    1015    00:34  3,6  6,2  15,5  
  08.11.2010  6,4    5,0    20:01    8,8    14:05  3,2    -0,9    17:55    6,9    10:51  80,4    59    16:33    98    09:41  990,7    982    23:45    1004    00:00  0,9  5,1  20,9  
  09.11.2010  7,6    5,4    02:21    10,1    12:34  6,1    3,3    00:00    8,1    11:47  90,6    77    13:16    98    23:59  984,0    981    03:01    987    23:59  3,0  3,0  14,4  
  10.11.2010  7,1    4,6    20:43    9,8    11:01  6,7    4,2    20:43    9,5    11:01  97,6    94    13:26    98    00:00  995,5    987    00:00    1010    23:00  7,6  4,3  29,2  
  11.11.2010  6,3    2,5    07:27    10,9    22:45  3,8    -0,2    11:54    10,3    22:34  85,0    60    13:20    98    00:00  1005,7    991    20:45    1014    03:30  8,5  10,0  33,1  
  12.11.2010  11,7    9,7    00:01    14,1    23:59  6,1    3,1    13:31    13,1    22:25  70,5    49    13:31    98    19:34  999,3    994    00:00    1003    15:15  7,7  13,0  44,3  
  13.11.2010  13,0    11,3    16:53    15,8    07:06  11,6    10,9    07:05    13,0    05:11  91,6    73    07:05    98    11:13  1000,7    999    00:15    1003    22:14  28,4  6,5  26,3  
  14.11.2010  13,8    11,9    00:00    15,5    11:40  10,0    5,8    22:41    12,9    04:32  78,8    60    22:33    98    00:00  1002,9    999    07:59    1011    23:44  0,0  7,1  22,3  
  15.11.2010  8,7    5,0    23:59    12,4    00:00  3,9    3,1    12:58    5,8    00:00  72,6    58    00:26    90    23:51  1018,3    1011    00:00    1024    21:59  0,0  2,2  23,0  
  16.11.2010  3,9    1,3    04:42    6,8    14:41  3,4    0,6    04:42    6,3    14:07  96,3    89    00:00    98    23:59  1025,9    1024    00:00    1027    09:14  0,0  1,7  11,5  
  17.11.2010  5,3    3,8    00:00    6,6    11:54  2,6    0,2    16:07    5,3    10:18  83,8    65    13:58    98    00:00  1016,8    1010    23:28    1026    00:14  0,0  1,4  10,4  
  18.11.2010  6,6    5,3    03:12    9,0    13:28  3,6    1,5    13:49    5,3    10:18  81,7    60    13:44    93    06:11  1010,6    1009    01:28    1014    21:28  0,0  0,8  17,3  
  19.11.2010  7,6    5,6    20:50    10,9    13:51  4,6    3,3    06:17    6,4    18:40  81,7    65    14:09    94    21:05  1015,7    1013    00:00    1018    20:13  0,9  1,6  11,9  
  20.11.2010  5,7    1,4    23:59    8,8    13:09  4,4    0,7    23:52    6,9    11:05  91,2    81    13:22    98    08:02  1016,3    1013    23:13    1019    02:58  0,0  0,6  11,9  
  21.11.2010  4,1    0,7    08:06    7,3    13:42  2,0    0,3    00:50    4,7    10:32  86,6    70    14:20    98    01:13  1011,1    1009    14:28    1015    00:28  0,0  0,7  10,8  
  22.11.2010  5,0    4,3    04:27    5,8    14:18  0,6    -0,1    23:05    1,3    13:04  73,3    68    15:33    76    00:27  1005,6    1004    12:12    1009    00:00  0,0  9,2  26,3  
  23.11.2010  4,6    3,4    01:41    6,0    12:00  2,4    -0,8    00:24    4,1    15:11  85,4    70    00:03    91    14:39  1006,4    1005    00:27    1008    20:59  0,0  8,3  20,5  
  24.11.2010  4,6    3,1    21:22    5,2    12:26  2,7    1,3    21:22    3,6    11:43  87,9    82    16:36    92    06:49  1007,4    1006    15:12    1008    00:00  1,0  5,7  20,9  
  25.11.2010  3,2    1,3    19:05    5,1    12:26  0,6    -0,9    13:10    2,4    00:01  83,7    65    13:10    93    23:51  1004,4    1003    09:27    1008    00:00  0,0  2,3  14,8  
  26.11.2010  0,4    -1,6    23:59    2,2    00:21  -0,2    -1,9    23:34    1,2    00:21  95,4    88    13:51    98    23:59  1006,0    1003    00:27    1008    21:56  3,9  1,3  11,5  
  27.11.2010  -0,1    -1,6    00:00    1,9    13:19  -1,2    -2,6    20:01    0,6    12:19  92,6    85    16:42    98    00:00  1007,4    1007    00:00    1008    00:11  0,9  2,6  12,6  
  28.11.2010  -1,2    -4,2    06:13    1,0    14:35  -3,6    -5,4    06:13    -2,4    00:00  83,6    73    18:39    93    09:44  1007,5    1005    19:56    1010    10:26  0,0  1,9  14,4  
  29.11.2010  -0,9    -1,7    03:41    -0,4    12:11  -3,3    -4,7    03:12    -1,3    21:24  83,8    74    11:55    96    23:57  1008,5    1006    00:00    1012    20:41  0,0  3,6  17,6  
  30.11.2010  -0,6    -1,5    23:59    1,0    13:18  -4,1    -8,1    23:12    -1,5    01:09  77,9    60    23:12    96    00:00  1012,9    1011    15:26    1015    05:26  0,0  3,9  21,2  
 
  Gesamt  6,9  -4,2            18,1            4,3  -8,1            13,6            84,4  49            98            1009,6  981            1027            77,0  4,0  44,3  
 
  Mittelwert  6,9  4,8            9,1            4,3  2,1            6,7            84,4  70,2            95,0            1009,6  1005,6            1013,7            2,6  4,0  17,6  
  Minimum  -1,2  -4,2            -0,4            -4,1  -8,1            -2,4            70,5  49,0            76,0            984,0  981,0            987,0            0,0  0,0  0,0  
  Maximum  16,4  15,1            18,1            11,6  10,9            13,6            97,6  94,0            98,0            1025,9  1024,0            1027,0            28,4  13,0  44,3  

  Heie Tage    Tmax >=30C     0  
  Sommertage    Tmax >=25C     0  
  Warme Tage    Tmax >=20C     0  
  Kalte Tage    Tmax  <10C     17  
  Frosttage    Tmin  <0C     5  
  Eistage    Tmax  <0C     1  
  Regentage > 0 mm    14  
  Regentage > 2 mm    8  
  Regentage > 10 mm    1  
  Regentage > 20 mm    1